Aviation Digital Data Service (ADDS)

Output produced by METARs form (1711 UTC 30 July 2014)
found at http://aviationweather.gov/adds/metars/
 
KHKY 301122Z 3012/3112 35005KT P6SM SCT060